sensor_id;sensor_type;location;lat;lon;timestamp;pressure;altitude;pressure_sealevel;temperature;humidity
43691;BME280;29293;52.190;21.226;2022-12-05T00:02:13;101347.96;;;-0.45;100.00
43691;BME280;29293;52.190;21.226;2022-12-05T00:17:21;101342.70;;;-0.46;100.00
43691;BME280;29293;52.190;21.226;2022-12-05T00:32:30;101347.50;;;-0.46;100.00
43691;BME280;29293;52.190;21.226;2022-12-05T00:47:38;101348.67;;;-0.48;100.00
43691;BME280;29293;52.190;21.226;2022-12-05T01:02:45;101343.33;;;-0.51;100.00
43691;BME280;29293;52.190;21.226;2022-12-05T01:17:53;101345.41;;;-0.57;100.00
43691;BME280;29293;52.190;21.226;2022-12-05T01:32:59;101327.27;;;-0.63;100.00
43691;BME280;29293;52.190;21.226;2022-12-05T01:48:10;101319.89;;;-0.64;100.00
43691;BME280;29293;52.190;21.226;2022-12-05T02:03:19;101304.90;;;-0.67;100.00
43691;BME280;29293;52.190;21.226;2022-12-05T02:18:40;101301.66;;;-0.70;100.00
43691;BME280;29293;52.190;21.226;2022-12-05T02:34:01;101290.98;;;-0.70;100.00
43691;BME280;29293;52.190;21.226;2022-12-05T02:49:14;101282.50;;;-0.67;100.00
43691;BME280;29293;52.190;21.226;2022-12-05T03:04:25;101275.70;;;-0.66;100.00
43691;BME280;29293;52.190;21.226;2022-12-05T03:19:39;101250.50;;;-0.73;100.00
43691;BME280;29293;52.190;21.226;2022-12-05T03:34:59;101224.21;;;-0.77;100.00
43691;BME280;29293;52.190;21.226;2022-12-05T03:50:18;101222.98;;;-0.77;100.00
43691;BME280;29293;52.190;21.226;2022-12-05T04:05:29;101258.70;;;-0.77;100.00
43691;BME280;29293;52.190;21.226;2022-12-05T04:20:40;101273.60;;;-0.77;100.00
43691;BME280;29293;52.190;21.226;2022-12-05T04:36:05;101245.61;;;-0.78;100.00
43691;BME280;29293;52.190;21.226;2022-12-05T04:51:17;101232.59;;;-0.81;100.00
43691;BME280;29293;52.190;21.226;2022-12-05T05:06:27;101230.23;;;-0.80;100.00
43691;BME280;29293;52.190;21.226;2022-12-05T05:21:37;101218.83;;;-0.82;100.00
43691;BME280;29293;52.190;21.226;2022-12-05T05:36:44;101234.30;;;-0.83;100.00
43691;BME280;29293;52.190;21.226;2022-12-05T05:51:51;101248.52;;;-0.83;100.00
43691;BME280;29293;52.190;21.226;2022-12-05T06:06:59;101256.98;;;-0.81;100.00
43691;BME280;29293;52.190;21.226;2022-12-05T06:22:05;101248.62;;;-0.78;100.00
43691;BME280;29293;52.190;21.226;2022-12-05T06:37:13;101249.42;;;-0.77;100.00
43691;BME280;29293;52.190;21.226;2022-12-05T06:52:20;101237.58;;;-0.75;100.00
43691;BME280;29293;52.190;21.226;2022-12-05T07:07:31;101244.15;;;-0.71;100.00
43691;BME280;29293;52.190;21.226;2022-12-05T07:22:38;101244.18;;;-0.65;100.00
43691;BME280;29293;52.190;21.226;2022-12-05T07:37:46;101237.46;;;-0.59;100.00
43691;BME280;29293;52.190;21.226;2022-12-05T07:52:52;101234.41;;;-0.52;100.00
43691;BME280;29293;52.190;21.226;2022-12-05T08:08:02;101229.52;;;-0.47;100.00
43691;BME280;29293;52.190;21.226;2022-12-05T08:23:10;101215.95;;;-0.43;100.00
43691;BME280;29293;52.190;21.226;2022-12-05T08:38:18;101217.02;;;-0.40;100.00
43691;BME280;29293;52.190;21.226;2022-12-05T08:53:25;101214.92;;;-0.34;100.00
43691;BME280;29293;52.190;21.226;2022-12-05T09:08:36;101219.86;;;-0.27;100.00
43691;BME280;29293;52.190;21.226;2022-12-05T09:23:44;101210.79;;;-0.14;100.00
43691;BME280;29293;52.190;21.226;2022-12-05T09:38:55;101189.44;;;-0.14;100.00
43691;BME280;29293;52.190;21.226;2022-12-05T09:54:07;101173.39;;;-0.17;100.00
43691;BME280;29293;52.190;21.226;2022-12-05T10:09:35;101147.03;;;-0.13;100.00
43691;BME280;29293;52.190;21.226;2022-12-05T10:24:49;101130.93;;;0.12;100.00
43691;BME280;29293;52.190;21.226;2022-12-05T10:39:58;101129.92;;;0.20;100.00
43691;BME280;29293;52.190;21.226;2022-12-05T10:55:12;101119.25;;;0.23;100.00
43691;BME280;29293;52.190;21.226;2022-12-05T11:10:22;101103.23;;;0.20;100.00
43691;BME280;29293;52.190;21.226;2022-12-05T11:25:33;101096.59;;;0.12;100.00
43691;BME280;29293;52.190;21.226;2022-12-05T11:40:49;101074.59;;;0.14;100.00
43691;BME280;29293;52.190;21.226;2022-12-05T11:56:05;101052.99;;;0.18;100.00
43691;BME280;29293;52.190;21.226;2022-12-05T12:11:22;101043.63;;;0.17;100.00
43691;BME280;29293;52.190;21.226;2022-12-05T12:26:41;101044.77;;;0.21;100.00
43691;BME280;29293;52.190;21.226;2022-12-05T12:57:24;101028.41;;;0.21;100.00
43691;BME280;29293;52.190;21.226;2022-12-05T13:12:36;101021.81;;;0.27;100.00
43691;BME280;29293;52.190;21.226;2022-12-05T13:27:55;101017.05;;;0.32;100.00
43691;BME280;29293;52.190;21.226;2022-12-05T13:43:05;101010.91;;;0.34;100.00
43691;BME280;29293;52.190;21.226;2022-12-05T13:58:48;100996.22;;;0.29;100.00
43691;BME280;29293;52.190;21.226;2022-12-05T14:13:56;100989.63;;;0.27;100.00
43691;BME280;29293;52.190;21.226;2022-12-05T14:29:25;100989.29;;;0.24;100.00
43691;BME280;29293;52.190;21.226;2022-12-05T14:44:37;100970.04;;;0.21;100.00
43691;BME280;29293;52.190;21.226;2022-12-05T14:59:54;100942.78;;;0.16;100.00
43691;BME280;29293;52.190;21.226;2022-12-05T15:15:09;100926.63;;;0.15;100.00
43691;BME280;29293;52.190;21.226;2022-12-05T15:30:20;100925.70;;;0.16;100.00
43691;BME280;29293;52.190;21.226;2022-12-05T15:45:29;100923.48;;;0.14;100.00
43691;BME280;29293;52.190;21.226;2022-12-05T16:00:41;100918.14;;;0.17;100.00
43691;BME280;29293;52.190;21.226;2022-12-05T16:15:54;100908.16;;;0.17;100.00
43691;BME280;29293;52.190;21.226;2022-12-05T16:31:03;100902.10;;;0.17;100.00
43691;BME280;29293;52.190;21.226;2022-12-05T16:46:40;100889.26;;;0.20;100.00
43691;BME280;29293;52.190;21.226;2022-12-05T17:01:48;100872.09;;;0.25;100.00
43691;BME280;29293;52.190;21.226;2022-12-05T17:17:07;100868.34;;;0.31;100.00
43691;BME280;29293;52.190;21.226;2022-12-05T17:32:22;100859.05;;;0.37;100.00
43691;BME280;29293;52.190;21.226;2022-12-05T17:47:29;100861.08;;;0.41;100.00
43691;BME280;29293;52.190;21.226;2022-12-05T18:02:39;100850.91;;;0.44;100.00
43691;BME280;29293;52.190;21.226;2022-12-05T18:17:47;100855.12;;;0.48;100.00
43691;BME280;29293;52.190;21.226;2022-12-05T18:32:55;100859.92;;;0.48;100.00
43691;BME280;29293;52.190;21.226;2022-12-05T18:48:02;100856.13;;;0.49;100.00
43691;BME280;29293;52.190;21.226;2022-12-05T19:03:10;100845.92;;;0.52;100.00
43691;BME280;29293;52.190;21.226;2022-12-05T19:18:58;100845.63;;;0.57;100.00
43691;BME280;29293;52.190;21.226;2022-12-05T19:34:07;100849.23;;;0.56;100.00
43691;BME280;29293;52.190;21.226;2022-12-05T19:49:15;100857.02;;;0.59;100.00
43691;BME280;29293;52.190;21.226;2022-12-05T20:04:23;100840.48;;;0.64;100.00
43691;BME280;29293;52.190;21.226;2022-12-05T20:19:30;100828.67;;;0.68;100.00
43691;BME280;29293;52.190;21.226;2022-12-05T20:34:37;100817.23;;;0.72;100.00
43691;BME280;29293;52.190;21.226;2022-12-05T20:49:44;100805.88;;;0.73;100.00
43691;BME280;29293;52.190;21.226;2022-12-05T21:04:51;100801.91;;;0.74;100.00
43691;BME280;29293;52.190;21.226;2022-12-05T21:19:59;100798.13;;;0.75;100.00
43691;BME280;29293;52.190;21.226;2022-12-05T21:35:07;100795.58;;;0.76;100.00
43691;BME280;29293;52.190;21.226;2022-12-05T21:50:15;100782.35;;;0.76;100.00
43691;BME280;29293;52.190;21.226;2022-12-05T22:20:43;100765.02;;;0.82;100.00
43691;BME280;29293;52.190;21.226;2022-12-05T22:35:54;100756.77;;;0.85;100.00
43691;BME280;29293;52.190;21.226;2022-12-05T22:51:06;100737.25;;;0.87;100.00
43691;BME280;29293;52.190;21.226;2022-12-05T23:06:15;100712.92;;;0.86;100.00
43691;BME280;29293;52.190;21.226;2022-12-05T23:21:25;100710.99;;;0.85;100.00
43691;BME280;29293;52.190;21.226;2022-12-05T23:36:35;100698.34;;;0.88;100.00
43691;BME280;29293;52.190;21.226;2022-12-05T23:51:43;100700.66;;;0.87;100.00
